createdAt,value
2023-02-05T00:02:28.778Z,2.30
2023-02-05T00:05:00.915Z,2.30
2023-02-05T00:07:32.584Z,2.40
2023-02-05T00:10:05.131Z,2.40
2023-02-05T00:12:36.917Z,2.40
2023-02-05T00:15:09.123Z,2.40
2023-02-05T00:17:40.913Z,2.40
2023-02-05T00:20:12.631Z,2.40
2023-02-05T00:22:44.416Z,2.30
2023-02-05T00:25:16.277Z,2.30
2023-02-05T00:27:48.035Z,2.30
2023-02-05T00:30:20.128Z,2.40
2023-02-05T00:32:51.974Z,2.40
2023-02-05T00:35:23.663Z,2.40
2023-02-05T00:37:56.312Z,2.40
2023-02-05T00:40:28.060Z,2.40
2023-02-05T00:42:59.817Z,2.40
2023-02-05T00:45:35.370Z,2.50
2023-02-05T00:48:07.893Z,2.50
2023-02-05T00:50:39.790Z,2.50
2023-02-05T00:53:11.499Z,2.50
2023-02-05T00:55:43.267Z,2.50
2023-02-05T00:58:15.748Z,2.50
2023-02-05T01:00:49.472Z,2.50
2023-02-05T01:03:21.211Z,2.50
2023-02-05T01:05:52.933Z,2.60
2023-02-05T01:08:24.689Z,2.60
2023-02-05T01:10:56.886Z,2.80
2023-02-05T01:13:28.624Z,2.80
2023-02-05T01:16:00.346Z,2.90
2023-02-05T01:18:32.357Z,2.80
2023-02-05T01:21:04.406Z,2.70
2023-02-05T01:23:36.132Z,2.60
2023-02-05T01:26:08.046Z,2.60
2023-02-05T01:28:39.797Z,2.50
2023-02-05T01:31:11.526Z,2.50
2023-02-05T01:33:43.440Z,2.40
2023-02-05T01:36:15.134Z,2.30
2023-02-05T01:38:46.912Z,2.30
2023-02-05T01:41:19.257Z,2.30
2023-02-05T01:44:06.417Z,2.20
2023-02-05T01:46:43.271Z,2.10
2023-02-05T01:49:18.037Z,2.10
2023-02-05T01:51:51.524Z,2.00
2023-02-05T01:54:26.545Z,2.00
2023-02-05T01:57:06.238Z,2.00
2023-02-05T01:59:41.191Z,2.00
2023-02-05T02:02:13.296Z,1.90
2023-02-05T02:04:50.070Z,1.90
2023-02-05T02:07:24.523Z,1.90
2023-02-05T02:09:57.262Z,1.80
2023-02-05T02:12:33.720Z,1.80
2023-02-05T02:15:18.599Z,1.80
2023-02-05T02:18:19.433Z,1.80
2023-02-05T02:21:09.635Z,1.80
2023-02-05T02:24:07.236Z,1.80
2023-02-05T02:26:57.765Z,1.80
2023-02-05T02:29:44.428Z,1.80
2023-02-05T02:32:31.153Z,2.00
2023-02-05T02:35:58.253Z,2.10
2023-02-05T02:38:49.937Z,2.20
2023-02-05T02:41:31.411Z,2.30
2023-02-05T02:44:15.817Z,2.30
2023-02-05T02:46:59.077Z,2.20
2023-02-05T02:49:33.084Z,2.30
2023-02-05T02:52:07.905Z,2.30
2023-02-05T02:54:42.594Z,2.20
2023-02-05T02:57:17.301Z,2.20
2023-02-05T02:59:52.288Z,2.20
2023-02-05T03:02:27.005Z,2.10
2023-02-05T03:05:06.549Z,2.00
2023-02-05T03:07:42.912Z,2.00
2023-02-05T03:10:23.781Z,2.00
2023-02-05T03:12:56.473Z,2.00
2023-02-05T03:15:28.302Z,2.10
2023-02-05T03:17:59.980Z,2.10
2023-02-05T03:20:38.724Z,2.10
2023-02-05T03:23:10.553Z,2.10
2023-02-05T03:25:42.354Z,2.00
2023-02-05T03:28:14.638Z,2.00
2023-02-05T03:30:53.789Z,1.90
2023-02-05T03:34:06.920Z,1.90
2023-02-05T03:36:54.402Z,1.80
2023-02-05T03:39:33.061Z,1.80
2023-02-05T03:42:14.480Z,1.70
2023-02-05T03:45:11.088Z,1.70
2023-02-05T03:48:20.252Z,1.70
2023-02-05T03:50:54.939Z,1.70
2023-02-05T03:53:36.394Z,1.70
2023-02-05T03:56:20.809Z,1.70
2023-02-05T03:58:56.315Z,1.80
2023-02-05T04:01:29.293Z,1.70
2023-02-05T04:04:00.981Z,1.70
2023-02-05T04:06:32.698Z,1.70
2023-02-05T04:09:04.832Z,1.60
2023-02-05T04:11:37.718Z,1.60
2023-02-05T04:14:09.460Z,1.60
2023-02-05T04:16:41.310Z,1.60
2023-02-05T04:19:13.206Z,1.60
2023-02-05T04:21:44.901Z,1.60
2023-02-05T04:24:16.660Z,1.60
2023-02-05T04:26:48.386Z,1.50
2023-02-05T04:29:20.148Z,1.50
2023-02-05T04:31:51.980Z,1.40
2023-02-05T04:34:23.892Z,1.40
2023-02-05T04:36:55.610Z,1.30
2023-02-05T04:39:27.469Z,1.30
2023-02-05T04:41:59.545Z,1.20
2023-02-05T04:44:31.257Z,1.10
2023-02-05T04:47:02.988Z,1.10
2023-02-05T04:49:34.897Z,1.00
2023-02-05T04:52:07.783Z,1.00
2023-02-05T04:54:39.541Z,1.00
2023-02-05T04:57:11.277Z,0.90
2023-02-05T04:59:42.990Z,0.90
2023-02-05T05:02:14.742Z,0.90
2023-02-05T05:04:46.577Z,1.00
2023-02-05T05:07:18.269Z,1.00
2023-02-05T05:09:52.180Z,1.00
2023-02-05T05:12:24.164Z,1.00
2023-02-05T05:14:55.984Z,1.10
2023-02-05T05:17:27.903Z,1.10
2023-02-05T05:19:59.751Z,1.20
2023-02-05T05:22:31.570Z,1.20
2023-02-05T05:25:03.516Z,1.20
2023-02-05T05:27:35.217Z,1.30
2023-02-05T05:30:07.415Z,1.30
2023-02-05T05:32:39.106Z,1.30
2023-02-05T05:35:10.881Z,1.30
2023-02-05T05:37:42.606Z,1.40
2023-02-05T05:40:32.756Z,1.40
2023-02-05T05:43:23.091Z,1.50
2023-02-05T05:45:54.797Z,1.50
2023-02-05T05:48:26.876Z,1.50
2023-02-05T05:50:58.788Z,1.60
2023-02-05T05:53:31.742Z,1.60
2023-02-05T05:56:03.740Z,1.60
2023-02-05T05:58:35.680Z,1.80
2023-02-05T06:01:08.349Z,1.80
2023-02-05T06:03:40.077Z,1.80
2023-02-05T06:06:12.714Z,1.70
2023-02-05T06:08:44.633Z,1.60
2023-02-05T06:11:16.308Z,1.50
2023-02-05T06:13:48.221Z,1.50
2023-02-05T06:16:19.944Z,1.50
2023-02-05T06:18:51.780Z,1.40
2023-02-05T06:21:23.656Z,1.40
2023-02-05T06:23:55.451Z,1.30
2023-02-05T06:26:27.209Z,1.30
2023-02-05T06:29:03.209Z,1.30
2023-02-05T06:31:35.079Z,1.30
2023-02-05T06:34:06.881Z,1.30
2023-02-05T06:36:38.556Z,1.30
2023-02-05T06:39:10.254Z,1.40
2023-02-05T06:41:42.026Z,1.40
2023-02-05T06:44:13.762Z,1.40
2023-02-05T06:46:45.439Z,1.50
2023-02-05T06:49:17.289Z,1.60
2023-02-05T06:51:49.007Z,1.60
2023-02-05T06:54:21.199Z,1.60
2023-02-05T06:56:52.918Z,1.70
2023-02-05T06:59:24.719Z,1.70
2023-02-05T07:01:56.578Z,1.70
2023-02-05T07:04:30.922Z,1.70
2023-02-05T07:07:02.672Z,1.70
2023-02-05T07:09:34.474Z,1.70
2023-02-05T07:12:06.549Z,1.80
2023-02-05T07:14:39.587Z,1.80
2023-02-05T07:17:11.576Z,1.90
2023-02-05T07:19:43.338Z,1.90
2023-02-05T07:22:15.963Z,1.90
2023-02-05T07:24:47.681Z,1.90
2023-02-05T07:27:19.553Z,2.00
2023-02-05T07:29:51.232Z,2.00
2023-02-05T07:32:22.922Z,2.00
2023-02-05T07:34:54.580Z,2.00
2023-02-05T07:37:26.255Z,2.00
2023-02-05T07:39:57.930Z,2.10
2023-02-05T07:42:31.696Z,2.20
2023-02-05T07:45:03.813Z,2.20
2023-02-05T07:47:35.593Z,2.40
2023-02-05T07:50:08.784Z,2.50
2023-02-05T07:52:40.455Z,2.50
2023-02-05T07:55:12.195Z,2.50
2023-02-05T07:57:43.851Z,2.70
2023-02-05T08:00:15.698Z,2.70
2023-02-05T08:02:47.354Z,2.70
2023-02-05T08:05:19.146Z,2.70
2023-02-05T08:07:50.806Z,2.70
2023-02-05T08:10:22.503Z,2.60
2023-02-05T08:12:54.704Z,2.50
2023-02-05T08:15:28.124Z,2.50
2023-02-05T08:17:59.921Z,2.50
2023-02-05T08:20:31.834Z,2.50
2023-02-05T08:23:05.125Z,2.50
2023-02-05T08:25:38.690Z,2.50
2023-02-05T08:28:10.548Z,2.70
2023-02-05T08:30:42.250Z,2.80
2023-02-05T08:33:14.013Z,2.70
2023-02-05T08:35:45.759Z,2.70
2023-02-05T08:38:17.429Z,2.70
2023-02-05T08:40:49.201Z,2.70
2023-02-05T08:43:20.896Z,2.80
2023-02-05T08:45:52.595Z,2.80
2023-02-05T08:48:24.298Z,2.90
2023-02-05T08:50:56.023Z,2.90
2023-02-05T08:53:27.805Z,3.10
2023-02-05T08:56:01.682Z,3.10
2023-02-05T08:58:33.698Z,3.20
2023-02-05T09:01:09.226Z,3.40
2023-02-05T09:03:41.450Z,3.50
2023-02-05T09:06:15.787Z,3.50
2023-02-05T09:08:47.453Z,3.50
2023-02-05T09:11:23.010Z,3.50
2023-02-05T09:13:54.779Z,3.60
2023-02-05T09:16:26.834Z,3.60
2023-02-05T09:18:59.608Z,3.70
2023-02-05T09:21:31.476Z,3.80
2023-02-05T09:24:03.396Z,3.80
2023-02-05T09:26:35.618Z,3.70
2023-02-05T09:29:07.371Z,3.70
2023-02-05T09:31:40.808Z,3.70
2023-02-05T09:34:13.280Z,3.70
2023-02-05T09:36:44.944Z,3.60
2023-02-05T09:39:44.095Z,3.60
2023-02-05T09:42:22.857Z,3.70
2023-02-05T09:45:05.151Z,3.60
2023-02-05T09:48:03.420Z,3.70
2023-02-05T09:50:35.174Z,3.70
2023-02-05T09:53:15.309Z,3.80
2023-02-05T09:55:48.059Z,3.80
2023-02-05T09:58:31.085Z,3.80
2023-02-05T10:01:06.328Z,3.80
2023-02-05T10:03:48.425Z,3.70
2023-02-05T10:06:30.376Z,3.60
2023-02-05T10:09:39.251Z,3.60
2023-02-05T10:12:25.193Z,3.60
2023-02-05T10:15:37.307Z,3.50
2023-02-05T10:18:42.341Z,3.50
2023-02-05T10:21:28.528Z,3.60
2023-02-05T10:24:06.047Z,3.60
2023-02-05T10:26:53.826Z,3.70
2023-02-05T10:29:45.856Z,3.60
2023-02-05T10:32:23.620Z,3.70
2023-02-05T10:35:05.632Z,3.60
2023-02-05T10:37:45.329Z,3.60
2023-02-05T10:40:21.920Z,3.70
2023-02-05T10:43:18.524Z,3.70
2023-02-05T10:45:51.325Z,3.70
2023-02-05T10:48:42.141Z,3.80
2023-02-05T10:51:41.206Z,3.80
2023-02-05T10:54:33.869Z,3.80
2023-02-05T10:57:16.120Z,3.80
2023-02-05T11:00:01.861Z,3.80
2023-02-05T11:02:39.179Z,3.90
2023-02-05T11:05:36.479Z,4.00
2023-02-05T11:08:32.292Z,4.00
2023-02-05T11:11:06.139Z,4.00
2023-02-05T11:13:47.723Z,4.00
2023-02-05T11:16:20.314Z,4.10
2023-02-05T11:18:58.873Z,4.20
2023-02-05T11:21:53.139Z,4.20
2023-02-05T11:24:39.374Z,4.20
2023-02-05T11:27:30.242Z,4.30
2023-02-05T11:30:51.232Z,4.20
2023-02-05T11:33:27.676Z,4.20
2023-02-05T11:36:05.060Z,4.30
2023-02-05T11:38:51.494Z,4.30
2023-02-05T11:41:51.736Z,4.30
2023-02-05T11:44:32.123Z,4.30
2023-02-05T11:47:03.949Z,4.30
2023-02-05T11:49:38.956Z,4.30
2023-02-05T11:52:13.090Z,4.20
2023-02-05T11:54:46.893Z,4.30
2023-02-05T11:57:19.586Z,4.40
2023-02-05T12:00:00.005Z,4.40
2023-02-05T12:02:34.924Z,4.40
2023-02-05T12:05:28.841Z,4.40
2023-02-05T12:08:13.551Z,4.30
2023-02-05T12:10:57.532Z,4.30
2023-02-05T12:13:47.661Z,4.30
2023-02-05T12:16:28.646Z,4.30
2023-02-05T12:19:14.738Z,4.40
2023-02-05T12:21:55.545Z,4.40
2023-02-05T12:24:47.910Z,4.40
2023-02-05T12:27:46.777Z,4.40
2023-02-05T12:30:27.501Z,4.50
2023-02-05T12:33:11.116Z,4.50
2023-02-05T12:36:18.360Z,4.40
2023-02-05T12:39:08.433Z,4.40
2023-02-05T12:42:07.585Z,4.40
2023-02-05T12:45:04.013Z,4.40
2023-02-05T12:47:41.680Z,4.40
2023-02-05T12:50:36.216Z,4.50
2023-02-05T12:53:32.952Z,4.50
2023-02-05T12:56:38.958Z,4.50
2023-02-05T12:59:13.748Z,4.50
2023-02-05T13:01:52.610Z,4.40
2023-02-05T13:04:34.497Z,4.30
2023-02-05T13:07:30.616Z,4.20
2023-02-05T13:10:07.042Z,4.20
2023-02-05T13:12:43.234Z,4.20
2023-02-05T13:15:17.682Z,4.10
2023-02-05T13:18:05.813Z,4.10
2023-02-05T13:21:04.956Z,4.10
2023-02-05T13:23:58.443Z,4.00
2023-02-05T13:26:54.257Z,4.00
2023-02-05T13:29:31.931Z,4.00
2023-02-05T13:32:16.197Z,4.10
2023-02-05T13:34:48.214Z,4.10
2023-02-05T13:37:41.047Z,4.10
2023-02-05T13:40:42.129Z,4.20
2023-02-05T13:43:35.970Z,4.20
2023-02-05T13:46:28.889Z,4.10
2023-02-05T13:49:24.001Z,4.10
2023-02-05T13:52:10.556Z,4.00
2023-02-05T13:55:11.233Z,3.90
2023-02-05T13:58:19.429Z,3.90
2023-02-05T14:01:00.010Z,3.90
2023-02-05T14:03:35.363Z,3.80
2023-02-05T14:06:24.297Z,3.70
2023-02-05T14:09:09.305Z,3.50
2023-02-05T14:11:55.634Z,3.50
2023-02-05T14:15:08.763Z,3.40
2023-02-05T14:17:40.441Z,3.30
2023-02-05T14:20:37.029Z,3.30
2023-02-05T14:23:36.802Z,3.20
2023-02-05T14:26:11.541Z,3.20
2023-02-05T14:28:45.840Z,3.20
2023-02-05T14:31:47.108Z,3.20
2023-02-05T14:34:32.213Z,3.10
2023-02-05T14:37:04.759Z,3.10
2023-02-05T14:39:36.885Z,3.20
2023-02-05T14:42:20.861Z,3.10
2023-02-05T14:44:57.267Z,3.10
2023-02-05T14:47:33.464Z,3.00
2023-02-05T14:50:17.619Z,2.90
2023-02-05T14:53:20.296Z,2.90
2023-02-05T14:55:56.585Z,2.90
2023-02-05T14:58:35.650Z,2.90
2023-02-05T15:01:49.870Z,2.90
2023-02-05T15:04:43.128Z,2.90
2023-02-05T15:07:23.627Z,2.90
2023-02-05T15:10:03.297Z,2.90
2023-02-05T15:12:53.853Z,3.00
2023-02-05T15:15:33.469Z,3.00
2023-02-05T15:18:29.925Z,3.00
2023-02-05T15:21:02.764Z,3.00
2023-02-05T15:23:39.910Z,2.90
2023-02-05T15:26:36.596Z,2.90
2023-02-05T15:29:22.240Z,2.90
2023-02-05T15:32:02.920Z,2.90
2023-02-05T15:34:46.951Z,2.90
2023-02-05T15:37:23.812Z,3.00
2023-02-05T15:39:59.278Z,2.90
2023-02-05T15:42:39.798Z,3.00
2023-02-05T15:45:25.470Z,3.00
2023-02-05T15:48:08.809Z,2.90
2023-02-05T15:50:49.986Z,2.90
2023-02-05T15:53:35.945Z,2.90
2023-02-05T15:56:07.818Z,2.90
2023-02-05T15:58:59.173Z,2.90
2023-02-05T16:01:35.646Z,2.90
2023-02-05T16:04:28.164Z,2.80
2023-02-05T16:07:01.690Z,2.80
2023-02-05T16:09:35.359Z,2.90
2023-02-05T16:12:14.430Z,2.90
2023-02-05T16:14:47.916Z,2.90
2023-02-05T16:17:26.020Z,2.90
2023-02-05T16:20:20.092Z,2.90
2023-02-05T16:23:00.107Z,3.00
2023-02-05T16:25:37.462Z,2.90
2023-02-05T16:28:29.332Z,2.90
2023-02-05T16:31:01.738Z,2.90
2023-02-05T16:33:38.688Z,2.90
2023-02-05T16:36:20.964Z,2.90
2023-02-05T16:38:56.424Z,2.90
2023-02-05T16:41:43.461Z,2.90
2023-02-05T16:44:35.253Z,2.90
2023-02-05T16:47:12.067Z,2.90
2023-02-05T16:49:46.132Z,2.90
2023-02-05T16:52:35.899Z,2.90
2023-02-05T16:55:27.628Z,2.90
2023-02-05T16:58:05.821Z,2.90
2023-02-05T17:00:38.310Z,2.90
2023-02-05T17:03:18.851Z,2.90
2023-02-05T17:06:00.368Z,2.90
2023-02-05T17:08:36.546Z,2.90
2023-02-05T17:11:41.780Z,2.80
2023-02-05T17:14:32.317Z,2.80
2023-02-05T17:17:17.370Z,2.80
2023-02-05T17:20:09.632Z,2.80
2023-02-05T17:23:03.034Z,2.70
2023-02-05T17:25:46.707Z,2.70
2023-02-05T17:28:27.357Z,2.70
2023-02-05T17:30:59.258Z,2.70
2023-02-05T17:33:31.049Z,2.70
2023-02-05T17:36:02.761Z,2.60
2023-02-05T17:38:34.523Z,2.60
2023-02-05T17:41:24.858Z,2.60
2023-02-05T17:43:56.541Z,2.50
2023-02-05T17:46:28.520Z,2.60
2023-02-05T17:49:00.256Z,2.60
2023-02-05T17:51:32.269Z,2.60
2023-02-05T17:54:04.066Z,2.50
2023-02-05T17:56:35.869Z,2.50
2023-02-05T17:59:18.259Z,2.50
2023-02-05T18:01:50.590Z,2.60
2023-02-05T18:04:22.313Z,2.60
2023-02-05T18:06:54.125Z,2.60
2023-02-05T18:09:25.836Z,2.60
2023-02-05T18:11:57.650Z,2.60
2023-02-05T18:14:29.362Z,2.60
2023-02-05T18:17:01.187Z,2.60
2023-02-05T18:19:34.709Z,2.70
2023-02-05T18:22:07.802Z,2.70
2023-02-05T18:24:39.671Z,2.70
2023-02-05T18:27:12.173Z,2.70
2023-02-05T18:29:43.998Z,2.70
2023-02-05T18:32:15.769Z,2.70
2023-02-05T18:34:47.491Z,2.70
2023-02-05T18:37:19.444Z,2.80
2023-02-05T18:39:51.246Z,2.80
2023-02-05T18:42:23.158Z,2.80
2023-02-05T18:44:54.906Z,2.80
2023-02-05T18:47:26.813Z,2.80
2023-02-05T18:49:58.487Z,2.80
2023-02-05T18:52:31.247Z,2.80
2023-02-05T18:55:03.121Z,2.90
2023-02-05T18:57:34.810Z,2.90
2023-02-05T19:00:07.108Z,2.90
2023-02-05T19:02:40.105Z,2.90
2023-02-05T19:05:11.992Z,2.90
2023-02-05T19:07:45.342Z,2.90
2023-02-05T19:10:18.332Z,2.90
2023-02-05T19:12:50.861Z,2.90
2023-02-05T19:15:22.595Z,3.00
2023-02-05T19:17:54.709Z,3.00
2023-02-05T19:20:26.873Z,2.90
2023-02-05T19:22:58.572Z,2.90
2023-02-05T19:25:30.294Z,2.90
2023-02-05T19:28:02.004Z,2.90
2023-02-05T19:30:35.975Z,2.80
2023-02-05T19:33:08.002Z,2.80
2023-02-05T19:35:40.004Z,2.70
2023-02-05T19:38:11.811Z,2.60
2023-02-05T19:40:43.511Z,2.60
2023-02-05T19:43:17.864Z,2.60
2023-02-05T19:45:49.801Z,2.60
2023-02-05T19:48:21.560Z,2.60
2023-02-05T19:50:53.334Z,2.60
2023-02-05T19:53:25.168Z,2.50
2023-02-05T19:56:07.163Z,2.50
2023-02-05T19:58:41.202Z,2.50
2023-02-05T20:01:23.792Z,2.50
2023-02-05T20:03:58.554Z,2.40
2023-02-05T20:06:30.366Z,2.40
2023-02-05T20:09:03.962Z,2.40
2023-02-05T20:11:40.458Z,2.30
2023-02-05T20:14:12.802Z,2.30
2023-02-05T20:16:47.382Z,2.40
2023-02-05T20:19:19.766Z,2.40
2023-02-05T20:21:52.262Z,2.40
2023-02-05T20:24:23.971Z,2.30
2023-02-05T20:26:56.842Z,2.30
2023-02-05T20:29:47.213Z,2.30
2023-02-05T20:32:18.916Z,2.30
2023-02-05T20:34:50.727Z,2.30
2023-02-05T20:37:23.092Z,2.30
2023-02-05T20:39:56.827Z,2.30
2023-02-05T20:42:29.567Z,2.30
2023-02-05T20:45:01.332Z,2.30
2023-02-05T20:47:34.295Z,2.20
2023-02-05T20:50:06.418Z,2.10
2023-02-05T20:52:38.193Z,2.10
2023-02-05T20:55:10.028Z,2.20
2023-02-05T20:57:41.788Z,2.20
2023-02-05T21:00:14.722Z,2.20
2023-02-05T21:02:46.456Z,2.20
2023-02-05T21:05:18.188Z,2.10
2023-02-05T21:07:49.938Z,2.10
2023-02-05T21:10:22.229Z,2.10
2023-02-05T21:12:53.984Z,2.10
2023-02-05T21:15:26.720Z,2.00
2023-02-05T21:17:58.417Z,2.00
2023-02-05T21:20:30.178Z,2.00
2023-02-05T21:23:01.853Z,2.00
2023-02-05T21:25:35.735Z,2.10
2023-02-05T21:28:07.563Z,2.10
2023-02-05T21:30:40.322Z,2.20
2023-02-05T21:33:12.085Z,2.20
2023-02-05T21:35:43.811Z,2.20
2023-02-05T21:38:15.667Z,2.30
2023-02-05T21:40:47.428Z,2.30
2023-02-05T21:43:19.175Z,2.30
2023-02-05T21:45:50.954Z,2.20
2023-02-05T21:48:22.706Z,2.20
2023-02-05T21:50:54.364Z,2.10
2023-02-05T21:53:27.704Z,2.10
2023-02-05T21:56:04.428Z,2.10
2023-02-05T21:58:38.236Z,2.20
2023-02-05T22:01:22.480Z,2.10
2023-02-05T22:04:06.917Z,2.20
2023-02-05T22:06:38.918Z,2.20
2023-02-05T22:09:13.261Z,2.10
2023-02-05T22:11:45.303Z,2.10
2023-02-05T22:14:17.015Z,2.10
2023-02-05T22:16:48.754Z,2.10
2023-02-05T22:19:20.508Z,2.10
2023-02-05T22:21:52.698Z,2.00
2023-02-05T22:24:24.532Z,2.00
2023-02-05T22:26:56.354Z,2.00
2023-02-05T22:29:28.073Z,2.10
2023-02-05T22:31:59.924Z,2.10
2023-02-05T22:34:31.687Z,2.10
2023-02-05T22:37:03.412Z,2.10
2023-02-05T22:39:35.093Z,2.00
2023-02-05T22:42:06.818Z,2.00
2023-02-05T22:44:38.554Z,2.10
2023-02-05T22:47:10.274Z,2.10
2023-02-05T22:49:41.934Z,2.10
2023-02-05T22:52:13.680Z,2.10
2023-02-05T22:54:45.388Z,2.10
2023-02-05T22:57:17.172Z,2.00
2023-02-05T22:59:48.908Z,2.00
2023-02-05T23:02:20.679Z,2.00
2023-02-05T23:04:53.062Z,2.00
2023-02-05T23:07:24.712Z,2.00
2023-02-05T23:09:56.450Z,2.10
2023-02-05T23:12:28.182Z,2.10
2023-02-05T23:14:59.905Z,2.10
2023-02-05T23:17:31.591Z,2.10
2023-02-05T23:20:03.994Z,2.10
2023-02-05T23:22:36.328Z,2.00
2023-02-05T23:25:08.300Z,2.00
2023-02-05T23:27:41.329Z,2.00
2023-02-05T23:30:13.485Z,2.00
2023-02-05T23:32:45.165Z,2.00
2023-02-05T23:35:16.990Z,2.00
2023-02-05T23:37:48.708Z,2.00
2023-02-05T23:40:20.386Z,2.10
2023-02-05T23:42:52.281Z,2.10
2023-02-05T23:45:24.728Z,2.10
2023-02-05T23:47:56.431Z,2.10
2023-02-05T23:50:28.956Z,2.10
2023-02-05T23:53:01.206Z,2.10
2023-02-05T23:55:37.681Z,2.10
2023-02-05T23:58:10.928Z,2.10
